• Join FlightAware (Why Join?)
  • Login
  • US Flag 
05:44PM EDT


 

Airport Tracker/Info


-or-


 

Live Flight TrackerFlight Track Log ✈ N36TG ✈ 08-Jul-2013 ✈ MYAM / MHH - KMLB

Flight Track Log - Related Links

Times and Time Zones

All times are in EDT time to prevent confusion due to time zone crossing. See the N36TG flight status page for this flight to view local times or setup timezone preferences in your user account.

Time Position Orientation Groundspeed Altitude Reporting Facility
EDT Latitude Longitude Course Direction KTS MPH feet Rate Location/Type
12:03PM 26.6953 -77.4611 294° West 218 251 11,300  Level Miami Center
12:04PM 26.7139 -77.5217 289° West 189 217 12,300 1,020 Climbing Miami Center
12:05PM 26.7325 -77.5775 290° West 189 217 13,400 960 Climbing Miami Center
12:06PM 26.7553 -77.6289 296° West 195 224 14,300 900 Climbing Miami Center
12:07PM 26.6648 -77.4450 293° West  Level FlightAware Approximate
12:07PM 26.7800 -77.6756 301° West 187 215 15,200  Level Miami Center
12:08PM 26.6866 -77.5082 294° West  Level FlightAware Approximate
12:08PM 26.8047 -77.7269 298° West 180 207 16,200  Level Miami Center
12:09PM 26.8275 -77.7806 295° West 186 214 17,200 840 Climbing Miami Center
12:10PM 26.8481 -77.8322 294° West 186 214 17,900 360 Climbing Miami Center
12:11PM 26.8683 -77.8881 292° West 186 214 18,000  Climbing Miami Center
12:12PM 26.8953 -77.9489 296° West 203 234 18,000  Level Miami Center
12:13PM 26.9217 -78.0167 294° West 216 249 18,000  Level Miami Center
12:14PM 26.9483 -78.0847 294° West 226 260 18,000  Level Miami Center
12:15PM 26.9750 -78.1478 295° West 232 267 18,000  Level Miami Center
12:16PM 27.0036 -78.2133 296° West 232 267 18,000  Level Miami Center
12:17PM 27.0303 -78.2814 294° West 238 274 18,000  Level Miami Center
12:18PM 27.0586 -78.3494 295° West 233 268 18,000  Level Miami Center
12:19PM 27.0894 -78.4058 302° West 233 268 18,000  Level Miami Center
12:20PM 27.1200 -78.4717 298° West 244 281 18,000  Level Miami Center
12:21PM 27.1444 -78.5419 291° West 237 273 18,000  Level Miami Center
12:22PM 27.1686 -78.6100 292° West 237 273 18,000  Level Miami Center
12:23PM 27.1992 -78.6828 295° West 237 273 18,000  Level Miami Center
12:24PM 27.2233 -78.7347 298° West 232 267 18,000  Level Miami Center
12:25PM 27.2517 -78.8122 292° West 232 267 18,000 -60 Level Miami Center
12:26PM 27.2739 -78.8686 294° West 227 261 17,900 -360 Descending Miami Center
12:27PM 27.3083 -78.9347 300° West 238 274 17,300 -900 Descending Miami Center
12:28PM 27.3325 -79.0122 289° West 238 274 16,200 -1,080 Descending Miami Center
12:29PM 27.3669 -79.0831 299° West 243 280 15,200 -600 Descending Miami Center
12:30PM 27.3928 -79.1514 293° West 243 280 15,000 -120 Descending Miami Center
12:31PM 27.4150 -79.2081 294° West 236 272 15,000  Level Miami Center
12:32PM 27.4369 -79.2717 291° West 224 258 15,000  Level Miami Center
12:33PM 27.4631 -79.3356 295° West 213 245 15,000 -240 Level Miami Center
12:34PM 27.4933 -79.3922 301° West 213 245 14,600 -600 Descending Miami Center
12:35PM 27.5278 -79.4469 305° West 213 245 13,800 -840 Descending Miami Center
12:36PM 27.5583 -79.4992 303° West 218 251 13,000 -720 Descending Miami Center
12:37PM 27.5861 -79.5653 295° West 213 245 12,400 -660 Descending Miami Center
12:38PM 27.6164 -79.6247 300° West 213 245 11,700 -660 Descending Miami Center
12:39PM 27.6467 -79.6794 302° West 207 238 11,100 -600 Descending Miami Center
12:40PM 27.6750 -79.7317 302° West 207 238 10,500 -600 Descending Miami Center
12:41PM 27.7031 -79.7886 299° West 207 238 10,000 -300 Descending Miami Center
12:42PM 27.7331 -79.8503 299° West 207 238 9,900 -300 Descending Miami Center
12:43PM 27.7631 -79.9053 302° West 207 238 9,400 -600 Descending Miami Center
12:44PM 27.7914 -79.9575 302° West 207 238 8,700 -720 Descending Miami Center
12:45PM 27.8172 -80.0100 299° West 207 238 8,000 -720 Descending Miami Center
12:47PM 27.8833 -80.1333 301° West 201 231 6,400 -780 Descending Orlando TRACON
12:48PM 27.9167 -80.1833 307° West 206 237 5,500 -660 Descending Orlando TRACON
12:49PM 27.9500 -80.2667 294° West 209 241 5,000 -240 Descending Orlando TRACON
12:50PM 27.9667 -80.3167 291° West 194 223 5,000 -360 Level Orlando TRACON
12:51PM 27.9833 -80.3667 291° West 197 227 4,300 -720 Descending Orlando TRACON
12:52PM 28.0000 -80.4167 291° West 208 239 3,700 -780 Descending Orlando TRACON
12:53PM 28.0167 -80.4833 286° West 207 238 3,000 -360 Descending Orlando TRACON
12:54PM 28.0000 -80.5500 254° West 186 214 3,000  Level Orlando TRACON
12:55PM 28.0000 -80.6000 270° West 184 212 3,000 -420 Level Orlando TRACON
12:56PM 28.0000 -80.6667 270° West 190 219 2,200 -540 Descending Orlando TRACON
12:57PM 28.0333 -80.7000 319° Northwest 166 191 2,000 -300 Descending Orlando TRACON
12:58PM 28.0667 -80.7167 336° Northwest 131 151 1,700 -420 Descending Orlando TRACON
12:59PM 28.1000 -80.7167 360° North 106 122 1,200 -660 Descending Orlando TRACON
01:00PM 28.1000 -80.6667 90° East 98 113 400 -780 Descending Orlando TRACON